createdAt,value
2018-06-25T11:20:20.180Z,24.75
2018-06-25T11:21:28.084Z,24.71
2018-06-25T11:22:40.639Z,24.66
2018-06-25T11:23:47.573Z,24.64
2018-06-25T11:24:54.018Z,24.60
2018-06-25T11:26:00.837Z,24.58
2018-06-25T11:27:08.424Z,24.55
2018-06-25T11:28:15.032Z,24.52
2018-06-25T11:29:21.964Z,24.50
2018-06-25T11:30:33.666Z,24.49
2018-06-25T11:31:40.560Z,24.46
2018-06-25T11:32:47.732Z,24.44
2018-06-25T11:33:54.650Z,24.42
2018-06-25T11:35:06.840Z,24.41
2018-06-25T11:36:13.849Z,24.40
2018-06-25T11:37:26.098Z,24.38
2018-06-25T11:38:32.902Z,24.38
2018-06-25T11:39:40.467Z,24.37
2018-06-25T11:40:47.364Z,24.36
2018-06-25T11:41:54.443Z,24.34
2018-06-25T11:43:00.566Z,24.33
2018-06-25T11:44:07.444Z,24.32
2018-06-25T11:45:14.449Z,24.30
2018-06-25T11:46:21.604Z,24.28
2018-06-25T11:47:33.603Z,24.26
2018-06-25T11:48:40.528Z,24.24
2018-06-25T11:49:47.455Z,24.22
2018-06-25T11:50:59.410Z,24.20
2018-06-25T11:52:06.249Z,24.18
2018-06-25T11:53:13.144Z,24.16
2018-06-25T11:54:20.313Z,24.15
2018-06-25T11:55:32.498Z,24.12
2018-06-25T11:56:39.058Z,24.12
2018-06-25T11:57:51.031Z,24.11
2018-06-25T11:58:57.974Z,24.09
2018-06-25T12:00:05.070Z,24.09
2018-06-25T12:01:12.186Z,24.09
2018-06-25T12:02:18.956Z,24.08
2018-06-25T12:03:25.857Z,24.07
2018-06-25T12:04:39.345Z,24.07
2018-06-25T12:05:46.305Z,24.07
2018-06-25T12:06:52.831Z,24.08
2018-06-25T12:08:01.100Z,24.08
2018-06-25T12:09:10.195Z,24.06
2018-06-25T12:10:16.915Z,24.06
2018-06-25T12:11:23.651Z,24.04
2018-06-25T12:12:30.976Z,24.03
2018-06-25T12:13:37.631Z,24.03
2018-06-25T12:14:44.273Z,24.02
2018-06-25T12:15:50.827Z,24.01
2018-06-25T12:16:57.975Z,24.00
2018-06-25T12:18:04.756Z,24.00
2018-06-25T12:19:11.484Z,24.01
2018-06-25T12:20:18.008Z,23.99
2018-06-25T12:21:24.763Z,23.99
2018-06-25T14:48:20.662Z,22.10
2018-06-25T14:51:59.590Z,22.43
2018-06-25T14:53:06.546Z,22.53
2018-06-25T14:54:12.720Z,22.66
2018-06-25T14:55:18.891Z,22.81
2018-06-25T14:56:25.254Z,22.94
2018-06-25T14:57:31.638Z,23.04
2018-06-25T14:58:38.114Z,23.15
2018-06-25T14:59:44.337Z,23.17
2018-06-25T15:00:50.853Z,23.22
2018-06-25T15:01:57.072Z,23.29
2018-06-25T15:03:03.383Z,23.34
2018-06-25T15:04:09.872Z,23.35
2018-06-25T15:05:16.272Z,23.36
2018-06-25T15:06:22.390Z,23.40
2018-06-25T15:07:28.558Z,23.41
2018-06-25T15:08:34.646Z,23.45
2018-06-25T15:09:41.015Z,23.48
2018-06-25T15:10:47.204Z,23.54
2018-06-25T15:11:53.983Z,23.57
2018-06-25T15:13:00.417Z,23.63
2018-06-25T15:14:06.792Z,23.68
2018-06-25T15:15:12.998Z,23.75
2018-06-25T15:16:19.182Z,23.82
2018-06-25T15:17:25.614Z,23.86
2018-06-25T15:18:31.806Z,23.89
2018-06-25T15:19:37.970Z,23.86
2018-06-25T15:20:44.204Z,23.83
2018-06-25T15:21:50.762Z,23.85
2018-06-25T15:22:56.934Z,23.78
2018-06-25T15:24:03.200Z,23.76
2018-06-25T15:25:09.453Z,23.76
2018-06-25T15:26:15.721Z,23.73
2018-06-25T15:27:22.197Z,23.70
2018-06-25T15:28:28.872Z,23.70
2018-06-25T15:29:35.256Z,23.71
2018-06-25T15:30:41.468Z,23.67
2018-06-25T15:31:48.146Z,23.65
2018-06-25T15:32:54.607Z,23.64
2018-06-25T15:34:03.127Z,23.59
2018-06-25T15:35:09.401Z,23.56
2018-06-25T15:36:16.196Z,23.54
2018-06-25T15:37:22.426Z,23.51
2018-06-25T15:38:43.905Z,23.46
2018-06-25T15:39:50.739Z,23.43
2018-06-25T15:40:57.415Z,23.42
2018-06-25T15:42:03.652Z,23.43
2018-06-25T15:43:14.802Z,23.42
2018-06-25T15:44:24.383Z,23.41
2018-06-25T15:45:33.012Z,23.43
2018-06-25T15:46:39.123Z,23.43
2018-06-25T15:47:45.119Z,23.43
2018-06-25T15:48:56.545Z,23.45
2018-06-25T15:50:02.817Z,23.47
2018-06-25T15:51:09.073Z,23.48
2018-06-25T15:52:15.105Z,23.48
2018-06-25T15:53:27.041Z,23.46
2018-06-25T15:54:33.441Z,23.42
2018-06-25T15:55:43.053Z,23.42
2018-06-25T15:56:54.235Z,23.42
2018-06-25T15:58:00.565Z,23.39
2018-06-25T15:59:06.774Z,23.41
2018-06-25T16:00:13.139Z,23.42
2018-06-25T16:01:19.314Z,23.42
2018-06-25T16:02:25.477Z,23.41
2018-06-25T16:03:31.491Z,23.43
2018-06-25T16:04:42.803Z,23.47
2018-06-25T16:05:54.188Z,23.51
2018-06-25T16:07:00.476Z,23.54
2018-06-25T16:08:06.541Z,23.53
2018-06-25T16:09:12.846Z,23.52
2018-06-25T16:10:19.054Z,23.53
2018-06-25T16:11:25.185Z,23.53
2018-06-25T16:12:36.718Z,23.51
2018-06-25T16:13:42.918Z,23.47
2018-06-25T16:14:49.065Z,23.45
2018-06-25T16:15:55.374Z,23.42
2018-06-25T16:17:06.912Z,23.37
2018-06-25T16:18:13.136Z,23.38
2018-06-25T16:19:19.217Z,23.36
2018-06-25T16:20:25.618Z,23.34
2018-06-25T16:21:31.970Z,23.36
2018-06-25T16:22:38.248Z,23.40
2018-06-25T16:23:45.601Z,23.44
2018-06-25T16:24:51.722Z,23.47
2018-06-25T16:25:57.960Z,23.49
2018-06-25T16:27:04.242Z,23.50
2018-06-25T16:28:10.680Z,23.52
2018-06-25T16:29:18.333Z,23.56
2018-06-25T16:30:24.527Z,23.61
2018-06-25T16:31:30.824Z,23.63
2018-06-25T16:32:36.981Z,23.59
2018-06-25T16:33:43.078Z,23.60
2018-06-25T16:34:49.549Z,23.63
2018-06-25T16:35:55.790Z,23.65
2018-06-25T16:37:02.146Z,23.64
2018-06-25T16:38:08.334Z,23.63
2018-06-25T16:39:14.934Z,23.60
2018-06-25T16:40:21.175Z,23.60
2018-06-25T16:41:27.503Z,23.56
2018-06-25T16:42:33.788Z,23.58
2018-06-25T16:43:40.038Z,23.55
2018-06-25T16:44:46.466Z,23.55
2018-06-25T16:45:52.707Z,23.57
2018-06-25T16:47:00.957Z,23.56
2018-06-25T16:48:07.588Z,23.59
2018-06-25T16:49:16.366Z,23.61
2018-06-25T16:50:28.595Z,23.60
2018-06-25T16:51:39.688Z,23.62
2018-06-25T16:52:47.329Z,23.61
2018-06-25T16:53:54.773Z,23.63
2018-06-25T16:55:02.558Z,23.67
2018-06-25T16:56:08.836Z,23.68
2018-06-25T16:57:15.162Z,23.66
2018-06-25T16:58:21.380Z,23.64
2018-06-25T16:59:27.548Z,23.64
2018-06-25T17:00:33.936Z,23.59
2018-06-25T17:01:43.325Z,23.58
2018-06-25T17:02:50.307Z,23.57
2018-06-25T17:03:58.384Z,23.52
2018-06-25T17:05:04.635Z,23.52
2018-06-25T17:07:16.235Z,23.47
2018-06-25T17:08:22.415Z,23.48
2018-06-25T17:09:28.431Z,23.51
2018-06-25T17:10:42.674Z,23.52
2018-06-25T17:11:49.777Z,23.54
2018-06-25T17:12:55.976Z,23.53
2018-06-25T17:14:11.105Z,23.52
2018-06-25T17:15:33.746Z,23.52
2018-06-25T17:16:41.441Z,23.57
2018-06-25T17:17:47.488Z,23.60
2018-06-25T17:18:53.833Z,23.61
2018-06-25T17:20:01.264Z,23.66
2018-06-25T17:21:07.097Z,23.72
2018-06-25T17:22:12.979Z,23.75
2018-06-25T17:23:19.656Z,23.75
2018-06-25T17:24:25.874Z,23.75
2018-06-25T17:25:31.860Z,23.73
2018-06-25T17:26:38.363Z,23.68
2018-06-25T17:27:44.174Z,23.70
2018-06-25T17:28:50.105Z,23.69
2018-06-25T17:29:56.370Z,23.69
2018-06-25T17:31:04.703Z,23.67
2018-06-25T17:32:10.508Z,23.63
2018-06-25T17:33:16.546Z,23.60
2018-06-25T17:34:23.720Z,23.56
2018-06-25T17:35:33.619Z,23.54
2018-06-25T17:36:39.833Z,23.51
2018-06-25T17:37:45.879Z,23.43
2018-06-25T17:38:53.472Z,23.40
2018-06-25T17:39:59.675Z,23.34
2018-06-25T17:41:05.599Z,23.32
2018-06-25T17:42:11.678Z,23.32
2018-06-25T17:43:17.586Z,23.34
2018-06-25T17:44:25.725Z,23.34
2018-06-25T17:45:34.044Z,23.33
2018-06-25T17:46:40.854Z,23.35
2018-06-25T17:47:48.521Z,23.32
2018-06-25T17:48:54.709Z,23.25
2018-06-25T17:50:01.152Z,23.23
2018-06-25T17:51:08.605Z,23.21
2018-06-25T17:52:14.527Z,23.18
2018-06-25T17:53:23.154Z,23.15
2018-06-25T17:54:29.710Z,23.13
2018-06-25T17:55:37.236Z,23.12
2018-06-25T17:56:43.789Z,23.10
2018-06-25T17:57:49.864Z,23.08
2018-06-25T17:58:56.019Z,23.06
2018-06-25T18:00:02.234Z,23.02
2018-06-25T18:01:08.971Z,22.99
2018-06-25T18:02:15.360Z,22.92
2018-06-25T18:03:21.607Z,22.88
2018-06-25T18:04:28.622Z,22.83
2018-06-25T18:05:34.781Z,22.79
2018-06-25T18:06:41.585Z,22.76
2018-06-25T18:07:47.798Z,22.75
2018-06-25T18:08:54.204Z,22.78
2018-06-25T18:10:02.431Z,22.78
2018-06-25T18:11:11.120Z,22.81
2018-06-25T18:12:19.700Z,22.86
2018-06-25T18:13:26.986Z,22.90
2018-06-25T18:14:35.277Z,22.95
2018-06-25T18:15:42.547Z,23.02
2018-06-25T18:16:48.590Z,23.09
2018-06-25T18:17:54.663Z,23.16
2018-06-25T18:19:03.615Z,23.22
2018-06-25T18:20:09.795Z,23.28
2018-06-25T18:21:16.541Z,23.30
2018-06-25T18:22:22.661Z,23.35
2018-06-25T18:23:28.799Z,23.39
2018-06-25T18:24:36.131Z,23.45
2018-06-25T18:25:42.270Z,23.48
2018-06-25T18:26:49.168Z,23.53
2018-06-25T18:27:55.429Z,23.55
2018-06-25T18:29:01.405Z,23.56
2018-06-25T18:30:08.223Z,23.59
2018-06-25T18:31:16.099Z,23.60
2018-06-25T18:32:22.325Z,23.64
2018-06-25T18:33:28.445Z,23.63
2018-06-25T18:34:34.729Z,23.63
2018-06-25T18:35:42.843Z,23.64
2018-06-25T18:36:51.130Z,23.62
2018-06-25T18:37:57.141Z,23.59
2018-06-25T18:39:03.460Z,23.56
2018-06-25T18:40:10.232Z,23.53
2018-06-25T18:41:17.653Z,23.49
2018-06-25T18:42:23.781Z,23.47
2018-06-25T18:43:30.060Z,23.48
2018-06-25T18:44:36.307Z,23.48
2018-06-25T18:45:42.573Z,23.46
2018-06-25T18:46:49.597Z,23.45
2018-06-25T18:47:56.329Z,23.45
2018-06-25T18:49:08.993Z,23.47
2018-06-25T18:50:15.408Z,23.47
2018-06-25T18:51:22.285Z,23.45
2018-06-25T18:52:31.401Z,23.42
2018-06-25T18:53:49.033Z,23.40
2018-06-25T18:54:55.559Z,23.40
2018-06-25T18:56:01.572Z,23.39
2018-06-25T18:57:09.233Z,23.39
2018-06-25T18:58:15.393Z,23.38
2018-06-25T18:59:22.812Z,23.33
2018-06-25T19:00:29.842Z,23.28
2018-06-25T19:01:35.920Z,23.26
2018-06-25T19:02:42.158Z,23.21
2018-06-25T19:03:49.711Z,23.19
2018-06-25T19:05:10.593Z,23.17
2018-06-25T19:06:17.659Z,23.16
2018-06-25T19:07:27.143Z,23.11
2018-06-25T19:08:33.348Z,23.07
2018-06-25T19:09:39.461Z,23.04
2018-06-25T19:10:46.409Z,23.02
2018-06-25T19:12:01.613Z,23.00
2018-06-25T19:13:08.407Z,22.98
2018-06-25T19:14:14.531Z,23.00
2018-06-25T19:15:20.696Z,23.03
2018-06-25T19:16:26.781Z,23.05
2018-06-25T19:17:32.890Z,23.08
2018-06-25T19:18:39.011Z,23.06
2018-06-25T19:19:45.307Z,23.04
2018-06-25T19:20:51.303Z,23.04
2018-06-25T19:21:57.349Z,23.01
2018-06-25T19:23:05.236Z,22.99
2018-06-25T19:24:13.099Z,22.95
2018-06-25T19:25:19.663Z,22.90
2018-06-25T19:26:26.012Z,22.84
2018-06-25T19:27:38.645Z,22.74
2018-06-25T19:28:44.939Z,22.69
2018-06-25T19:29:52.082Z,22.65
2018-06-25T19:31:10.709Z,22.64
2018-06-25T19:32:17.417Z,22.59
2018-06-25T19:33:23.445Z,22.55
2018-06-25T19:34:30.046Z,22.53
2018-06-25T19:35:36.107Z,22.47
2018-06-25T19:36:43.202Z,22.45
2018-06-25T19:37:49.513Z,22.43
2018-06-25T19:38:56.292Z,22.44
2018-06-25T19:40:02.443Z,22.44
2018-06-25T19:41:08.901Z,22.43
2018-06-25T19:42:15.028Z,22.43
2018-06-25T19:43:21.438Z,22.42
2018-06-25T19:44:27.937Z,22.40
2018-06-25T19:45:35.207Z,22.42
2018-06-25T19:46:41.498Z,22.44
2018-06-25T19:47:48.360Z,22.48
2018-06-25T19:48:54.652Z,22.52
2018-06-25T19:50:00.772Z,22.52
2018-06-25T19:51:08.148Z,22.54
2018-06-25T19:52:14.409Z,22.55
2018-06-25T19:53:20.587Z,22.56
2018-06-25T19:54:26.663Z,22.56
2018-06-25T19:55:33.959Z,22.57
2018-06-25T19:56:41.145Z,22.54
2018-06-25T19:57:47.360Z,22.54
2018-06-25T19:58:53.707Z,22.53
2018-06-25T20:00:00.869Z,22.53
2018-06-25T20:01:08.341Z,22.50
2018-06-25T20:02:15.113Z,22.45
2018-06-25T20:03:21.055Z,22.43
2018-06-25T20:04:27.581Z,22.41
2018-06-25T20:05:35.218Z,22.38
2018-06-25T20:06:41.574Z,22.36
2018-06-25T20:07:49.173Z,22.30
2018-06-25T20:08:57.269Z,22.28
2018-06-25T20:10:04.181Z,22.27
2018-06-25T20:11:10.880Z,22.27
2018-06-25T20:12:17.003Z,22.24
2018-06-25T20:13:24.829Z,22.18
2018-06-25T20:14:31.240Z,22.12
2018-06-25T20:15:37.434Z,22.11
2018-06-25T20:16:43.614Z,22.10
2018-06-25T20:17:51.492Z,22.10
2018-06-25T20:19:00.030Z,22.07
2018-06-25T20:20:09.351Z,22.00
2018-06-25T20:21:15.439Z,21.97
2018-06-25T20:22:37.558Z,21.96
2018-06-25T20:23:48.668Z,21.97
2018-06-25T20:24:54.922Z,21.89
2018-06-25T20:26:03.245Z,21.83
2018-06-25T20:27:09.379Z,21.82
2018-06-25T20:28:16.633Z,21.78
2018-06-25T20:29:23.675Z,21.80
2018-06-25T20:30:29.765Z,21.81
2018-06-25T20:31:35.727Z,21.83
2018-06-25T20:32:45.499Z,21.82
2018-06-25T20:33:57.440Z,21.79
2018-06-25T20:35:12.699Z,21.80
2018-06-25T20:36:23.557Z,21.75
2018-06-25T20:37:31.093Z,21.74
2018-06-25T20:38:44.396Z,21.76
2018-06-25T20:39:50.567Z,21.71
2018-06-25T20:40:56.785Z,21.70
2018-06-25T20:42:03.064Z,21.64
2018-06-25T20:43:14.783Z,21.59
2018-06-25T20:44:20.909Z,21.57
2018-06-25T20:45:27.020Z,21.54
2018-06-25T20:46:35.269Z,21.52
2018-06-25T20:47:42.039Z,21.48
2018-06-25T20:48:49.593Z,21.44
2018-06-25T20:49:55.659Z,21.41
2018-06-25T20:51:01.798Z,21.36
2018-06-25T20:52:08.334Z,21.31
2018-06-25T20:53:14.988Z,21.25
2018-06-25T20:54:21.981Z,21.18
2018-06-25T20:55:29.140Z,21.12
2018-06-25T20:56:35.202Z,21.07
2018-06-25T20:57:45.945Z,21.03
2018-06-25T20:58:54.952Z,20.96
2018-06-25T21:00:03.668Z,20.95
2018-06-25T21:01:09.852Z,20.87
2018-06-25T21:02:16.076Z,20.82
2018-06-25T21:03:23.769Z,20.78
2018-06-25T21:04:31.511Z,20.76
2018-06-25T21:05:37.698Z,20.74
2018-06-25T21:06:43.918Z,20.71
2018-06-25T21:07:50.129Z,20.64
2018-06-25T21:08:56.171Z,20.57
2018-06-25T21:10:02.426Z,20.56
2018-06-25T21:11:09.877Z,20.57
2018-06-25T21:12:17.214Z,20.60
2018-06-25T21:13:26.739Z,20.62
2018-06-25T21:14:33.194Z,20.64
2018-06-25T21:15:40.991Z,20.66
2018-06-25T21:16:49.343Z,20.66
2018-06-25T21:17:57.222Z,20.66
2018-06-25T21:19:03.483Z,20.65
2018-06-25T21:20:09.791Z,20.62
2018-06-25T21:21:15.801Z,20.59
2018-06-25T21:22:23.357Z,20.60
2018-06-25T21:23:31.983Z,20.60
2018-06-25T21:24:38.107Z,20.61
2018-06-25T21:25:45.583Z,20.61
2018-06-25T21:26:51.687Z,20.62
2018-06-25T21:27:58.227Z,20.62
2018-06-25T21:29:05.007Z,20.63
2018-06-25T21:30:12.537Z,20.63
2018-06-25T21:31:22.759Z,20.60
2018-06-25T21:32:29.813Z,20.56
2018-06-25T21:33:35.941Z,20.55
2018-06-25T21:34:42.251Z,20.53
2018-06-25T21:35:54.055Z,20.56
2018-06-25T21:37:02.778Z,20.56
2018-06-25T21:38:09.068Z,20.60
2018-06-25T21:39:16.644Z,20.62
2018-06-25T21:40:22.796Z,20.66
2018-06-25T21:41:29.355Z,20.69
2018-06-25T21:42:36.075Z,20.70
2018-06-25T21:43:42.138Z,20.66
2018-06-25T21:44:48.109Z,20.64
2018-06-25T21:45:55.185Z,20.62
2018-06-25T21:47:01.487Z,20.58
2018-06-25T21:48:07.653Z,20.55
2018-06-25T21:49:14.923Z,20.52
2018-06-25T21:50:22.123Z,20.51
2018-06-25T21:51:28.817Z,20.52
2018-06-25T21:52:35.125Z,20.55
2018-06-25T21:53:41.367Z,20.58
2018-06-25T21:54:47.608Z,20.59
2018-06-25T21:55:54.595Z,20.57
2018-06-25T21:57:04.582Z,20.53
2018-06-25T21:58:10.847Z,20.50
2018-06-25T21:59:18.065Z,20.47
